sensor_id;sensor_type;location;lat;lon;timestamp;temperature;humidity
13205;DHT22;6667;52.634;9.226;2023-12-20T00:01:09;6.50;99.90
13205;DHT22;6667;52.634;9.226;2023-12-20T00:03:36;6.50;99.90
13205;DHT22;6667;52.634;9.226;2023-12-20T00:06:03;6.40;99.90
13205;DHT22;6667;52.634;9.226;2023-12-20T00:08:30;6.40;99.90
13205;DHT22;6667;52.634;9.226;2023-12-20T00:10:56;6.40;99.90
13205;DHT22;6667;52.634;9.226;2023-12-20T00:13:24;6.40;99.90
13205;DHT22;6667;52.634;9.226;2023-12-20T00:15:51;6.30;99.90
13205;DHT22;6667;52.634;9.226;2023-12-20T00:18:17;6.30;99.90
13205;DHT22;6667;52.634;9.226;2023-12-20T00:20:44;6.30;99.90
13205;DHT22;6667;52.634;9.226;2023-12-20T00:23:11;6.30;99.90
13205;DHT22;6667;52.634;9.226;2023-12-20T00:25:37;6.20;99.90
13205;DHT22;6667;52.634;9.226;2023-12-20T00:28:04;6.20;99.90
13205;DHT22;6667;52.634;9.226;2023-12-20T00:30:32;6.20;99.90
13205;DHT22;6667;52.634;9.226;2023-12-20T00:32:59;6.20;99.90
13205;DHT22;6667;52.634;9.226;2023-12-20T00:35:25;6.20;99.90
13205;DHT22;6667;52.634;9.226;2023-12-20T00:37:52;6.20;99.90
13205;DHT22;6667;52.634;9.226;2023-12-20T00:40:18;6.20;99.90
13205;DHT22;6667;52.634;9.226;2023-12-20T00:42:46;6.20;99.90
13205;DHT22;6667;52.634;9.226;2023-12-20T00:45:13;6.20;99.90
13205;DHT22;6667;52.634;9.226;2023-12-20T00:47:41;6.20;99.90
13205;DHT22;6667;52.634;9.226;2023-12-20T00:50:08;6.20;99.90
13205;DHT22;6667;52.634;9.226;2023-12-20T00:52:35;6.10;99.90
13205;DHT22;6667;52.634;9.226;2023-12-20T00:55:02;6.20;99.90
13205;DHT22;6667;52.634;9.226;2023-12-20T00:57:29;6.20;99.90
13205;DHT22;6667;52.634;9.226;2023-12-20T00:59:56;6.20;99.90
13205;DHT22;6667;52.634;9.226;2023-12-20T01:02:23;6.20;99.90
13205;DHT22;6667;52.634;9.226;2023-12-20T01:04:51;6.10;99.90
13205;DHT22;6667;52.634;9.226;2023-12-20T01:07:17;6.10;99.90
13205;DHT22;6667;52.634;9.226;2023-12-20T01:09:44;6.10;99.90
13205;DHT22;6667;52.634;9.226;2023-12-20T01:12:11;6.00;99.90
13205;DHT22;6667;52.634;9.226;2023-12-20T01:14:37;6.00;99.90
13205;DHT22;6667;52.634;9.226;2023-12-20T01:17:04;6.00;99.90
13205;DHT22;6667;52.634;9.226;2023-12-20T01:19:31;5.90;99.90
13205;DHT22;6667;52.634;9.226;2023-12-20T01:21:59;5.90;99.90
13205;DHT22;6667;52.634;9.226;2023-12-20T01:24:25;5.80;99.90
13205;DHT22;6667;52.634;9.226;2023-12-20T01:26:52;5.80;99.90
13205;DHT22;6667;52.634;9.226;2023-12-20T01:29:19;5.80;99.90
13205;DHT22;6667;52.634;9.226;2023-12-20T01:31:45;5.80;99.90
13205;DHT22;6667;52.634;9.226;2023-12-20T01:34:12;5.80;99.90
13205;DHT22;6667;52.634;9.226;2023-12-20T01:36:39;5.80;99.90
13205;DHT22;6667;52.634;9.226;2023-12-20T01:39:06;5.80;99.90
13205;DHT22;6667;52.634;9.226;2023-12-20T01:41:33;5.80;99.90
13205;DHT22;6667;52.634;9.226;2023-12-20T01:44:00;5.70;99.90
13205;DHT22;6667;52.634;9.226;2023-12-20T01:46:26;5.70;99.90
13205;DHT22;6667;52.634;9.226;2023-12-20T01:48:53;5.70;99.90
13205;DHT22;6667;52.634;9.226;2023-12-20T01:51:21;5.70;99.90
13205;DHT22;6667;52.634;9.226;2023-12-20T01:53:48;5.70;99.90
13205;DHT22;6667;52.634;9.226;2023-12-20T01:56:16;5.70;99.90
13205;DHT22;6667;52.634;9.226;2023-12-20T01:58:44;5.70;99.90
13205;DHT22;6667;52.634;9.226;2023-12-20T02:01:11;5.70;99.90
13205;DHT22;6667;52.634;9.226;2023-12-20T02:03:39;5.70;99.90
13205;DHT22;6667;52.634;9.226;2023-12-20T02:06:06;5.70;99.90
13205;DHT22;6667;52.634;9.226;2023-12-20T02:08:33;5.70;99.90
13205;DHT22;6667;52.634;9.226;2023-12-20T02:10:59;5.70;99.90
13205;DHT22;6667;52.634;9.226;2023-12-20T02:13:27;5.70;99.90
13205;DHT22;6667;52.634;9.226;2023-12-20T02:15:54;5.70;99.90
13205;DHT22;6667;52.634;9.226;2023-12-20T02:18:21;5.60;99.90
13205;DHT22;6667;52.634;9.226;2023-12-20T02:20:48;5.60;99.90
13205;DHT22;6667;52.634;9.226;2023-12-20T02:23:16;5.60;99.90
13205;DHT22;6667;52.634;9.226;2023-12-20T02:25:43;5.60;99.90
13205;DHT22;6667;52.634;9.226;2023-12-20T02:28:10;5.60;99.90
13205;DHT22;6667;52.634;9.226;2023-12-20T02:30:36;5.50;99.90
13205;DHT22;6667;52.634;9.226;2023-12-20T02:33:04;5.50;99.90
13205;DHT22;6667;52.634;9.226;2023-12-20T02:35:32;5.40;99.90
13205;DHT22;6667;52.634;9.226;2023-12-20T02:37:59;5.40;99.90
13205;DHT22;6667;52.634;9.226;2023-12-20T02:40:28;5.40;99.90
13205;DHT22;6667;52.634;9.226;2023-12-20T02:42:55;5.40;99.90
13205;DHT22;6667;52.634;9.226;2023-12-20T02:45:21;5.40;99.90
13205;DHT22;6667;52.634;9.226;2023-12-20T02:47:48;5.40;99.90
13205;DHT22;6667;52.634;9.226;2023-12-20T02:50:14;5.40;99.90
13205;DHT22;6667;52.634;9.226;2023-12-20T02:52:44;5.30;99.90
13205;DHT22;6667;52.634;9.226;2023-12-20T02:55:11;5.30;99.90
13205;DHT22;6667;52.634;9.226;2023-12-20T02:57:39;5.30;99.90
13205;DHT22;6667;52.634;9.226;2023-12-20T03:00:08;5.30;99.90
13205;DHT22;6667;52.634;9.226;2023-12-20T03:02:34;5.30;99.90
13205;DHT22;6667;52.634;9.226;2023-12-20T03:05:01;5.30;99.90
13205;DHT22;6667;52.634;9.226;2023-12-20T03:07:28;5.30;99.90
13205;DHT22;6667;52.634;9.226;2023-12-20T03:09:55;5.30;99.90
13205;DHT22;6667;52.634;9.226;2023-12-20T03:12:21;5.30;99.90
13205;DHT22;6667;52.634;9.226;2023-12-20T03:14:49;5.30;99.90
13205;DHT22;6667;52.634;9.226;2023-12-20T03:17:16;5.30;99.90
13205;DHT22;6667;52.634;9.226;2023-12-20T03:19:42;5.30;99.90
13205;DHT22;6667;52.634;9.226;2023-12-20T03:22:09;5.30;99.90
13205;DHT22;6667;52.634;9.226;2023-12-20T03:24:36;5.30;99.90
13205;DHT22;6667;52.634;9.226;2023-12-20T03:27:03;5.30;99.90
13205;DHT22;6667;52.634;9.226;2023-12-20T03:29:29;5.30;99.90
13205;DHT22;6667;52.634;9.226;2023-12-20T03:31:57;5.30;99.90
13205;DHT22;6667;52.634;9.226;2023-12-20T03:34:24;5.30;99.90
13205;DHT22;6667;52.634;9.226;2023-12-20T03:36:50;5.30;99.90
13205;DHT22;6667;52.634;9.226;2023-12-20T03:39:17;5.40;99.90
13205;DHT22;6667;52.634;9.226;2023-12-20T03:41:44;5.40;99.90
13205;DHT22;6667;52.634;9.226;2023-12-20T03:44:10;5.40;99.90
13205;DHT22;6667;52.634;9.226;2023-12-20T03:46:37;5.40;99.90
13205;DHT22;6667;52.634;9.226;2023-12-20T03:49:05;5.40;99.90
13205;DHT22;6667;52.634;9.226;2023-12-20T03:51:31;5.40;99.90
13205;DHT22;6667;52.634;9.226;2023-12-20T03:53:58;5.40;99.90
13205;DHT22;6667;52.634;9.226;2023-12-20T03:56:24;5.50;99.90
13205;DHT22;6667;52.634;9.226;2023-12-20T03:58:51;5.50;99.90
13205;DHT22;6667;52.634;9.226;2023-12-20T04:01:18;5.60;99.90
13205;DHT22;6667;52.634;9.226;2023-12-20T04:03:44;5.60;99.90
13205;DHT22;6667;52.634;9.226;2023-12-20T04:06:17;5.60;99.90
13205;DHT22;6667;52.634;9.226;2023-12-20T04:08:44;5.60;99.90
13205;DHT22;6667;52.634;9.226;2023-12-20T04:11:11;5.60;99.90
13205;DHT22;6667;52.634;9.226;2023-12-20T04:13:37;5.60;99.90
13205;DHT22;6667;52.634;9.226;2023-12-20T04:16:04;5.60;99.90
13205;DHT22;6667;52.634;9.226;2023-12-20T04:18:31;5.60;99.90
13205;DHT22;6667;52.634;9.226;2023-12-20T04:20:57;5.60;99.90
13205;DHT22;6667;52.634;9.226;2023-12-20T04:23:25;5.70;99.90
13205;DHT22;6667;52.634;9.226;2023-12-20T04:25:52;5.70;99.90
13205;DHT22;6667;52.634;9.226;2023-12-20T04:28:18;5.70;99.90
13205;DHT22;6667;52.634;9.226;2023-12-20T04:30:45;5.80;99.90
13205;DHT22;6667;52.634;9.226;2023-12-20T04:33:12;5.80;99.90
13205;DHT22;6667;52.634;9.226;2023-12-20T04:35:38;5.80;99.90
13205;DHT22;6667;52.634;9.226;2023-12-20T04:38:06;5.80;99.90
13205;DHT22;6667;52.634;9.226;2023-12-20T04:40:34;5.90;99.90
13205;DHT22;6667;52.634;9.226;2023-12-20T04:43:01;5.90;99.90
13205;DHT22;6667;52.634;9.226;2023-12-20T04:45:27;5.90;99.90
13205;DHT22;6667;52.634;9.226;2023-12-20T04:47:55;5.90;99.90
13205;DHT22;6667;52.634;9.226;2023-12-20T04:50:22;5.90;99.90
13205;DHT22;6667;52.634;9.226;2023-12-20T04:52:48;5.90;99.90
13205;DHT22;6667;52.634;9.226;2023-12-20T04:55:15;5.90;99.90
13205;DHT22;6667;52.634;9.226;2023-12-20T04:57:43;5.90;99.90
13205;DHT22;6667;52.634;9.226;2023-12-20T05:00:11;6.00;99.90
13205;DHT22;6667;52.634;9.226;2023-12-20T05:02:37;6.00;99.90
13205;DHT22;6667;52.634;9.226;2023-12-20T05:05:04;6.00;99.90
13205;DHT22;6667;52.634;9.226;2023-12-20T05:07:31;6.00;99.90
13205;DHT22;6667;52.634;9.226;2023-12-20T05:09:58;6.00;99.90
13205;DHT22;6667;52.634;9.226;2023-12-20T05:12:24;6.00;99.90
13205;DHT22;6667;52.634;9.226;2023-12-20T05:14:53;6.00;99.90
13205;DHT22;6667;52.634;9.226;2023-12-20T05:17:19;6.00;99.90
13205;DHT22;6667;52.634;9.226;2023-12-20T05:19:46;6.10;99.90
13205;DHT22;6667;52.634;9.226;2023-12-20T05:22:13;6.10;99.90
13205;DHT22;6667;52.634;9.226;2023-12-20T05:24:39;6.00;99.90
13205;DHT22;6667;52.634;9.226;2023-12-20T05:27:06;6.00;99.90
13205;DHT22;6667;52.634;9.226;2023-12-20T05:29:32;6.00;99.90
13205;DHT22;6667;52.634;9.226;2023-12-20T05:32:00;6.00;99.90
13205;DHT22;6667;52.634;9.226;2023-12-20T05:34:28;6.00;99.90
13205;DHT22;6667;52.634;9.226;2023-12-20T05:36:54;6.10;99.90
13205;DHT22;6667;52.634;9.226;2023-12-20T05:39:21;6.10;99.90
13205;DHT22;6667;52.634;9.226;2023-12-20T05:41:48;6.10;99.90
13205;DHT22;6667;52.634;9.226;2023-12-20T05:44:14;6.10;99.90
13205;DHT22;6667;52.634;9.226;2023-12-20T05:46:41;6.10;99.90
13205;DHT22;6667;52.634;9.226;2023-12-20T05:49:09;6.10;99.90
13205;DHT22;6667;52.634;9.226;2023-12-20T05:51:36;6.10;99.90
13205;DHT22;6667;52.634;9.226;2023-12-20T05:54:02;6.10;99.90
13205;DHT22;6667;52.634;9.226;2023-12-20T05:56:29;6.10;99.90
13205;DHT22;6667;52.634;9.226;2023-12-20T05:58:56;6.10;99.90
13205;DHT22;6667;52.634;9.226;2023-12-20T06:01:24;6.10;99.90
13205;DHT22;6667;52.634;9.226;2023-12-20T06:03:50;6.10;99.90
13205;DHT22;6667;52.634;9.226;2023-12-20T06:06:18;6.10;99.90
13205;DHT22;6667;52.634;9.226;2023-12-20T06:08:45;6.10;99.90
13205;DHT22;6667;52.634;9.226;2023-12-20T06:11:12;6.10;99.90
13205;DHT22;6667;52.634;9.226;2023-12-20T06:13:39;6.10;99.90
13205;DHT22;6667;52.634;9.226;2023-12-20T06:16:06;6.20;99.90
13205;DHT22;6667;52.634;9.226;2023-12-20T06:18:33;6.10;99.90
13205;DHT22;6667;52.634;9.226;2023-12-20T06:21:00;6.20;99.90
13205;DHT22;6667;52.634;9.226;2023-12-20T06:23:29;6.10;99.90
13205;DHT22;6667;52.634;9.226;2023-12-20T06:25:55;6.20;99.90
13205;DHT22;6667;52.634;9.226;2023-12-20T06:28:23;6.20;99.90
13205;DHT22;6667;52.634;9.226;2023-12-20T06:30:49;6.20;99.90
13205;DHT22;6667;52.634;9.226;2023-12-20T06:33:17;6.20;99.90
13205;DHT22;6667;52.634;9.226;2023-12-20T06:35:46;6.20;99.90
13205;DHT22;6667;52.634;9.226;2023-12-20T06:38:13;6.20;99.90
13205;DHT22;6667;52.634;9.226;2023-12-20T06:40:41;6.20;99.90
13205;DHT22;6667;52.634;9.226;2023-12-20T06:43:08;6.20;99.90
13205;DHT22;6667;52.634;9.226;2023-12-20T06:45:34;6.20;99.90
13205;DHT22;6667;52.634;9.226;2023-12-20T06:48:01;6.20;99.90
13205;DHT22;6667;52.634;9.226;2023-12-20T06:50:28;6.20;99.90
13205;DHT22;6667;52.634;9.226;2023-12-20T06:52:54;6.20;99.90
13205;DHT22;6667;52.634;9.226;2023-12-20T06:55:21;6.20;99.90
13205;DHT22;6667;52.634;9.226;2023-12-20T06:57:49;6.30;99.90
13205;DHT22;6667;52.634;9.226;2023-12-20T07:00:17;6.30;99.90
13205;DHT22;6667;52.634;9.226;2023-12-20T07:02:45;6.30;99.90
13205;DHT22;6667;52.634;9.226;2023-12-20T07:05:15;6.30;99.90
13205;DHT22;6667;52.634;9.226;2023-12-20T07:07:42;6.30;99.90
13205;DHT22;6667;52.634;9.226;2023-12-20T07:10:09;6.30;99.90
13205;DHT22;6667;52.634;9.226;2023-12-20T07:12:35;6.30;99.90
13205;DHT22;6667;52.634;9.226;2023-12-20T07:15:04;6.30;99.90
13205;DHT22;6667;52.634;9.226;2023-12-20T07:17:32;6.30;99.90
13205;DHT22;6667;52.634;9.226;2023-12-20T07:19:59;6.20;99.90
13205;DHT22;6667;52.634;9.226;2023-12-20T07:22:29;6.20;99.90
13205;DHT22;6667;52.634;9.226;2023-12-20T07:24:56;6.20;99.90
13205;DHT22;6667;52.634;9.226;2023-12-20T07:27:23;6.20;99.90
13205;DHT22;6667;52.634;9.226;2023-12-20T07:29:50;6.20;99.90
13205;DHT22;6667;52.634;9.226;2023-12-20T07:32:18;6.20;99.90
13205;DHT22;6667;52.634;9.226;2023-12-20T07:34:44;6.20;99.90
13205;DHT22;6667;52.634;9.226;2023-12-20T07:37:11;6.30;99.90
13205;DHT22;6667;52.634;9.226;2023-12-20T07:39:39;6.30;99.90
13205;DHT22;6667;52.634;9.226;2023-12-20T07:42:06;6.30;99.90
13205;DHT22;6667;52.634;9.226;2023-12-20T07:44:32;6.30;99.90
13205;DHT22;6667;52.634;9.226;2023-12-20T07:46:59;6.30;99.90
13205;DHT22;6667;52.634;9.226;2023-12-20T07:49:27;6.30;99.90
13205;DHT22;6667;52.634;9.226;2023-12-20T07:51:54;6.30;99.90
13205;DHT22;6667;52.634;9.226;2023-12-20T07:54:21;6.30;99.90
13205;DHT22;6667;52.634;9.226;2023-12-20T07:56:48;6.30;99.90
13205;DHT22;6667;52.634;9.226;2023-12-20T07:59:15;6.30;99.90
13205;DHT22;6667;52.634;9.226;2023-12-20T08:01:42;6.30;99.90
13205;DHT22;6667;52.634;9.226;2023-12-20T08:04:08;6.30;99.90
13205;DHT22;6667;52.634;9.226;2023-12-20T08:06:36;6.40;99.90
13205;DHT22;6667;52.634;9.226;2023-12-20T08:09:03;6.40;99.90
13205;DHT22;6667;52.634;9.226;2023-12-20T08:11:30;6.40;99.90
13205;DHT22;6667;52.634;9.226;2023-12-20T08:13:57;6.40;99.90
13205;DHT22;6667;52.634;9.226;2023-12-20T08:16:24;6.40;99.90
13205;DHT22;6667;52.634;9.226;2023-12-20T08:18:51;6.40;99.90
13205;DHT22;6667;52.634;9.226;2023-12-20T08:21:18;6.40;99.90
13205;DHT22;6667;52.634;9.226;2023-12-20T08:23:46;6.50;99.90
13205;DHT22;6667;52.634;9.226;2023-12-20T08:26:18;6.50;99.90
13205;DHT22;6667;52.634;9.226;2023-12-20T08:28:46;6.50;99.90
13205;DHT22;6667;52.634;9.226;2023-12-20T08:31:14;6.60;99.90
13205;DHT22;6667;52.634;9.226;2023-12-20T08:33:40;6.60;99.90
13205;DHT22;6667;52.634;9.226;2023-12-20T08:36:07;6.60;99.90
13205;DHT22;6667;52.634;9.226;2023-12-20T08:38:34;6.60;99.90
13205;DHT22;6667;52.634;9.226;2023-12-20T08:41:02;6.60;99.90
13205;DHT22;6667;52.634;9.226;2023-12-20T08:43:30;6.60;99.90
13205;DHT22;6667;52.634;9.226;2023-12-20T08:45:57;6.60;99.90
13205;DHT22;6667;52.634;9.226;2023-12-20T08:48:23;6.60;99.90
13205;DHT22;6667;52.634;9.226;2023-12-20T08:50:50;6.70;99.90
13205;DHT22;6667;52.634;9.226;2023-12-20T08:53:17;6.70;99.90
13205;DHT22;6667;52.634;9.226;2023-12-20T08:55:44;6.60;99.90
13205;DHT22;6667;52.634;9.226;2023-12-20T08:58:12;6.70;99.90
13205;DHT22;6667;52.634;9.226;2023-12-20T09:00:39;6.70;99.90
13205;DHT22;6667;52.634;9.226;2023-12-20T09:03:06;6.70;99.90
13205;DHT22;6667;52.634;9.226;2023-12-20T09:05:33;6.70;99.90
13205;DHT22;6667;52.634;9.226;2023-12-20T09:08:00;6.70;99.90
13205;DHT22;6667;52.634;9.226;2023-12-20T09:10:26;6.80;99.90
13205;DHT22;6667;52.634;9.226;2023-12-20T09:12:53;6.80;99.90
13205;DHT22;6667;52.634;9.226;2023-12-20T09:15:23;6.80;99.90
13205;DHT22;6667;52.634;9.226;2023-12-20T09:17:49;6.90;99.90
13205;DHT22;6667;52.634;9.226;2023-12-20T09:20:16;6.90;99.90
13205;DHT22;6667;52.634;9.226;2023-12-20T09:22:43;6.80;99.90
13205;DHT22;6667;52.634;9.226;2023-12-20T09:25:10;6.80;99.90
13205;DHT22;6667;52.634;9.226;2023-12-20T09:27:38;6.80;99.90
13205;DHT22;6667;52.634;9.226;2023-12-20T09:30:05;6.80;99.90
13205;DHT22;6667;52.634;9.226;2023-12-20T09:32:33;6.90;99.90
13205;DHT22;6667;52.634;9.226;2023-12-20T09:35:01;6.90;99.90
13205;DHT22;6667;52.634;9.226;2023-12-20T09:37:28;6.90;99.90
13205;DHT22;6667;52.634;9.226;2023-12-20T09:39:55;6.90;99.90
13205;DHT22;6667;52.634;9.226;2023-12-20T09:42:24;6.90;99.90
13205;DHT22;6667;52.634;9.226;2023-12-20T09:44:51;6.90;99.90
13205;DHT22;6667;52.634;9.226;2023-12-20T09:47:20;6.90;99.90
13205;DHT22;6667;52.634;9.226;2023-12-20T09:49:51;7.00;99.90
13205;DHT22;6667;52.634;9.226;2023-12-20T09:52:18;6.90;99.90
13205;DHT22;6667;52.634;9.226;2023-12-20T09:54:45;7.00;99.90
13205;DHT22;6667;52.634;9.226;2023-12-20T09:57:15;6.90;99.90
13205;DHT22;6667;52.634;9.226;2023-12-20T09:59:42;6.90;99.90
13205;DHT22;6667;52.634;9.226;2023-12-20T10:02:12;7.00;99.90
13205;DHT22;6667;52.634;9.226;2023-12-20T10:04:44;7.10;99.90
13205;DHT22;6667;52.634;9.226;2023-12-20T10:07:13;7.20;99.90
13205;DHT22;6667;52.634;9.226;2023-12-20T10:09:40;7.10;99.90
13205;DHT22;6667;52.634;9.226;2023-12-20T10:12:08;7.10;99.90
13205;DHT22;6667;52.634;9.226;2023-12-20T10:14:34;7.10;99.90
13205;DHT22;6667;52.634;9.226;2023-12-20T10:17:02;7.10;99.90
13205;DHT22;6667;52.634;9.226;2023-12-20T10:19:29;7.20;99.90
13205;DHT22;6667;52.634;9.226;2023-12-20T10:21:57;7.10;99.90
13205;DHT22;6667;52.634;9.226;2023-12-20T10:24:25;7.20;99.90
13205;DHT22;6667;52.634;9.226;2023-12-20T10:27:01;7.20;99.90
13205;DHT22;6667;52.634;9.226;2023-12-20T10:29:32;7.30;99.90
13205;DHT22;6667;52.634;9.226;2023-12-20T10:31:58;7.30;99.90
13205;DHT22;6667;52.634;9.226;2023-12-20T10:34:25;7.30;99.90
13205;DHT22;6667;52.634;9.226;2023-12-20T10:36:52;7.30;99.90
13205;DHT22;6667;52.634;9.226;2023-12-20T10:39:19;7.30;99.90
13205;DHT22;6667;52.634;9.226;2023-12-20T10:41:48;7.30;99.90
13205;DHT22;6667;52.634;9.226;2023-12-20T10:44:15;7.30;99.90
13205;DHT22;6667;52.634;9.226;2023-12-20T10:46:42;7.30;99.90
13205;DHT22;6667;52.634;9.226;2023-12-20T10:49:16;7.40;99.90
13205;DHT22;6667;52.634;9.226;2023-12-20T10:51:44;7.40;99.90
13205;DHT22;6667;52.634;9.226;2023-12-20T10:54:12;7.40;99.90
13205;DHT22;6667;52.634;9.226;2023-12-20T10:56:38;7.40;99.90
13205;DHT22;6667;52.634;9.226;2023-12-20T10:59:08;7.30;99.90
13205;DHT22;6667;52.634;9.226;2023-12-20T11:01:38;7.20;99.90
13205;DHT22;6667;52.634;9.226;2023-12-20T11:04:08;7.10;99.90
13205;DHT22;6667;52.634;9.226;2023-12-20T11:06:45;7.10;99.90
13205;DHT22;6667;52.634;9.226;2023-12-20T11:09:16;7.00;99.90
13205;DHT22;6667;52.634;9.226;2023-12-20T11:11:56;7.00;99.90
13205;DHT22;6667;52.634;9.226;2023-12-20T11:14:29;6.90;99.90
13205;DHT22;6667;52.634;9.226;2023-12-20T11:17:09;6.90;99.90
13205;DHT22;6667;52.634;9.226;2023-12-20T11:19:38;6.90;99.90
13205;DHT22;6667;52.634;9.226;2023-12-20T11:22:05;7.00;99.90
13205;DHT22;6667;52.634;9.226;2023-12-20T11:24:33;7.00;99.90
13205;DHT22;6667;52.634;9.226;2023-12-20T11:27:00;7.00;99.90
13205;DHT22;6667;52.634;9.226;2023-12-20T11:29:35;7.10;99.90
13205;DHT22;6667;52.634;9.226;2023-12-20T11:32:03;7.00;99.90
13205;DHT22;6667;52.634;9.226;2023-12-20T11:34:32;7.00;99.90
13205;DHT22;6667;52.634;9.226;2023-12-20T11:36:59;7.00;99.90
13205;DHT22;6667;52.634;9.226;2023-12-20T11:39:27;7.00;99.90
13205;DHT22;6667;52.634;9.226;2023-12-20T11:41:55;7.10;99.90
13205;DHT22;6667;52.634;9.226;2023-12-20T11:44:23;7.20;99.90
13205;DHT22;6667;52.634;9.226;2023-12-20T11:46:52;7.20;99.90
13205;DHT22;6667;52.634;9.226;2023-12-20T11:49:23;7.30;99.90
13205;DHT22;6667;52.634;9.226;2023-12-20T11:51:50;7.30;99.90
13205;DHT22;6667;52.634;9.226;2023-12-20T11:54:17;7.20;99.90
13205;DHT22;6667;52.634;9.226;2023-12-20T11:56:43;7.20;99.90
13205;DHT22;6667;52.634;9.226;2023-12-20T11:59:10;7.20;99.90
13205;DHT22;6667;52.634;9.226;2023-12-20T12:01:37;7.10;99.90
13205;DHT22;6667;52.634;9.226;2023-12-20T12:04:05;7.00;99.90
13205;DHT22;6667;52.634;9.226;2023-12-20T12:06:32;7.00;99.90
13205;DHT22;6667;52.634;9.226;2023-12-20T12:08:59;6.90;99.90
13205;DHT22;6667;52.634;9.226;2023-12-20T12:11:26;6.90;99.90
13205;DHT22;6667;52.634;9.226;2023-12-20T12:13:52;6.90;99.90
13205;DHT22;6667;52.634;9.226;2023-12-20T12:16:20;6.90;99.90
13205;DHT22;6667;52.634;9.226;2023-12-20T12:18:55;6.90;99.90
13205;DHT22;6667;52.634;9.226;2023-12-20T12:21:23;7.00;99.90
13205;DHT22;6667;52.634;9.226;2023-12-20T12:23:50;7.00;99.90
13205;DHT22;6667;52.634;9.226;2023-12-20T12:26:16;6.80;99.90
13205;DHT22;6667;52.634;9.226;2023-12-20T12:28:43;6.70;99.90
13205;DHT22;6667;52.634;9.226;2023-12-20T12:31:14;6.60;99.90
13205;DHT22;6667;52.634;9.226;2023-12-20T12:33:41;6.60;99.90
13205;DHT22;6667;52.634;9.226;2023-12-20T12:36:10;6.60;99.90
13205;DHT22;6667;52.634;9.226;2023-12-20T12:38:42;6.50;99.90
13205;DHT22;6667;52.634;9.226;2023-12-20T12:41:10;6.60;99.90
13205;DHT22;6667;52.634;9.226;2023-12-20T12:43:38;6.50;99.90
13205;DHT22;6667;52.634;9.226;2023-12-20T12:46:05;6.50;99.90
13205;DHT22;6667;52.634;9.226;2023-12-20T12:48:32;6.50;99.90
13205;DHT22;6667;52.634;9.226;2023-12-20T12:50:59;6.40;99.90
13205;DHT22;6667;52.634;9.226;2023-12-20T12:53:25;6.50;99.90
13205;DHT22;6667;52.634;9.226;2023-12-20T12:55:54;6.50;99.90
13205;DHT22;6667;52.634;9.226;2023-12-20T12:58:21;6.50;99.90
13205;DHT22;6667;52.634;9.226;2023-12-20T13:00:47;6.40;99.90
13205;DHT22;6667;52.634;9.226;2023-12-20T13:03:14;6.40;99.90
13205;DHT22;6667;52.634;9.226;2023-12-20T13:05:41;6.40;99.90
13205;DHT22;6667;52.634;9.226;2023-12-20T13:08:08;6.40;99.90
13205;DHT22;6667;52.634;9.226;2023-12-20T13:10:37;6.50;99.90
13205;DHT22;6667;52.634;9.226;2023-12-20T13:13:05;6.40;99.90
13205;DHT22;6667;52.634;9.226;2023-12-20T13:15:31;6.40;99.90
13205;DHT22;6667;52.634;9.226;2023-12-20T13:17:58;6.40;99.90
13205;DHT22;6667;52.634;9.226;2023-12-20T13:20:25;6.40;99.90
13205;DHT22;6667;52.634;9.226;2023-12-20T13:22:52;6.40;99.90
13205;DHT22;6667;52.634;9.226;2023-12-20T13:25:18;6.40;99.90
13205;DHT22;6667;52.634;9.226;2023-12-20T13:27:45;6.30;99.90
13205;DHT22;6667;52.634;9.226;2023-12-20T13:30:13;6.40;99.90
13205;DHT22;6667;52.634;9.226;2023-12-20T13:32:40;6.40;99.90
13205;DHT22;6667;52.634;9.226;2023-12-20T13:35:07;6.40;99.90
13205;DHT22;6667;52.634;9.226;2023-12-20T13:37:34;6.40;99.90
13205;DHT22;6667;52.634;9.226;2023-12-20T13:40:00;6.40;99.90
13205;DHT22;6667;52.634;9.226;2023-12-20T13:42:28;6.40;99.90
13205;DHT22;6667;52.634;9.226;2023-12-20T13:44:55;6.40;99.90
13205;DHT22;6667;52.634;9.226;2023-12-20T13:47:23;6.40;99.90
13205;DHT22;6667;52.634;9.226;2023-12-20T13:49:49;6.40;99.90
13205;DHT22;6667;52.634;9.226;2023-12-20T13:52:16;6.40;99.90
13205;DHT22;6667;52.634;9.226;2023-12-20T13:54:43;6.40;99.90
13205;DHT22;6667;52.634;9.226;2023-12-20T13:57:09;6.40;99.90
13205;DHT22;6667;52.634;9.226;2023-12-20T13:59:36;6.40;99.90
13205;DHT22;6667;52.634;9.226;2023-12-20T14:02:02;6.40;99.90
13205;DHT22;6667;52.634;9.226;2023-12-20T14:04:31;6.40;99.90
13205;DHT22;6667;52.634;9.226;2023-12-20T14:06:58;6.40;99.90
13205;DHT22;6667;52.634;9.226;2023-12-20T14:09:24;6.50;99.90
13205;DHT22;6667;52.634;9.226;2023-12-20T14:11:51;6.40;99.90
13205;DHT22;6667;52.634;9.226;2023-12-20T14:14:18;6.50;99.90
13205;DHT22;6667;52.634;9.226;2023-12-20T14:16:44;6.40;99.90
13205;DHT22;6667;52.634;9.226;2023-12-20T14:19:12;6.40;99.90
13205;DHT22;6667;52.634;9.226;2023-12-20T14:21:40;6.40;99.90
13205;DHT22;6667;52.634;9.226;2023-12-20T14:24:06;6.40;99.90
13205;DHT22;6667;52.634;9.226;2023-12-20T14:26:33;6.40;99.90
13205;DHT22;6667;52.634;9.226;2023-12-20T14:29:00;6.50;99.90
13205;DHT22;6667;52.634;9.226;2023-12-20T14:31:26;6.50;99.90
13205;DHT22;6667;52.634;9.226;2023-12-20T14:33:53;6.50;99.90
13205;DHT22;6667;52.634;9.226;2023-12-20T14:36:21;6.50;99.90
13205;DHT22;6667;52.634;9.226;2023-12-20T14:38:49;6.50;99.90
13205;DHT22;6667;52.634;9.226;2023-12-20T14:41:16;6.50;99.90
13205;DHT22;6667;52.634;9.226;2023-12-20T14:43:44;6.50;99.90
13205;DHT22;6667;52.634;9.226;2023-12-20T14:46:12;6.50;99.90
13205;DHT22;6667;52.634;9.226;2023-12-20T14:48:38;6.50;99.90
13205;DHT22;6667;52.634;9.226;2023-12-20T14:51:05;6.50;99.90
13205;DHT22;6667;52.634;9.226;2023-12-20T14:53:31;6.50;99.90
13205;DHT22;6667;52.634;9.226;2023-12-20T14:55:59;6.50;99.90
13205;DHT22;6667;52.634;9.226;2023-12-20T14:58:27;6.40;99.90
13205;DHT22;6667;52.634;9.226;2023-12-20T15:00:54;6.50;99.90
13205;DHT22;6667;52.634;9.226;2023-12-20T15:03:22;6.50;99.90
13205;DHT22;6667;52.634;9.226;2023-12-20T15:05:48;6.50;99.90
13205;DHT22;6667;52.634;9.226;2023-12-20T15:08:15;6.50;99.90
13205;DHT22;6667;52.634;9.226;2023-12-20T15:10:42;6.50;99.90
13205;DHT22;6667;52.634;9.226;2023-12-20T15:13:10;6.50;99.90
13205;DHT22;6667;52.634;9.226;2023-12-20T15:15:37;6.50;99.90
13205;DHT22;6667;52.634;9.226;2023-12-20T15:18:04;6.50;99.90
13205;DHT22;6667;52.634;9.226;2023-12-20T15:20:31;6.50;99.90
13205;DHT22;6667;52.634;9.226;2023-12-20T15:22:59;6.40;99.90
13205;DHT22;6667;52.634;9.226;2023-12-20T15:25:30;6.40;99.90
13205;DHT22;6667;52.634;9.226;2023-12-20T15:27:57;6.40;99.90
13205;DHT22;6667;52.634;9.226;2023-12-20T15:30:25;6.40;99.90
13205;DHT22;6667;52.634;9.226;2023-12-20T15:32:51;6.40;99.90
13205;DHT22;6667;52.634;9.226;2023-12-20T15:35:18;6.40;99.90
13205;DHT22;6667;52.634;9.226;2023-12-20T15:37:44;6.40;99.90
13205;DHT22;6667;52.634;9.226;2023-12-20T15:40:11;6.40;99.90
13205;DHT22;6667;52.634;9.226;2023-12-20T15:42:38;6.30;99.90
13205;DHT22;6667;52.634;9.226;2023-12-20T15:45:06;6.30;99.90
13205;DHT22;6667;52.634;9.226;2023-12-20T15:47:35;6.20;99.90
13205;DHT22;6667;52.634;9.226;2023-12-20T15:50:02;6.20;99.90
13205;DHT22;6667;52.634;9.226;2023-12-20T15:52:29;6.20;99.90
13205;DHT22;6667;52.634;9.226;2023-12-20T15:54:56;6.10;99.90
13205;DHT22;6667;52.634;9.226;2023-12-20T15:57:22;6.10;99.90
13205;DHT22;6667;52.634;9.226;2023-12-20T15:59:49;6.10;99.90
13205;DHT22;6667;52.634;9.226;2023-12-20T16:02:16;6.00;99.90